createdAt,value
2023-04-18T00:02:00.386Z,6.80
2023-04-18T00:07:02.720Z,7.78
2023-04-18T00:12:05.616Z,6.93
2023-04-18T00:17:10.645Z,7.37
2023-04-18T00:22:16.910Z,8.37
2023-04-18T00:27:19.566Z,7.75
2023-04-18T00:32:21.756Z,7.60
2023-04-18T00:37:23.974Z,7.57
2023-04-18T00:42:27.967Z,7.78
2023-04-18T00:47:30.191Z,7.70
2023-04-18T00:52:35.837Z,7.80
2023-04-18T00:57:38.372Z,7.05
2023-04-18T01:02:40.855Z,7.85
2023-04-18T01:07:43.381Z,8.02
2023-04-18T01:12:45.518Z,7.63
2023-04-18T01:17:47.739Z,8.70
2023-04-18T01:22:51.011Z,8.10
2023-04-18T01:27:54.436Z,7.65
2023-04-18T01:32:56.607Z,8.20
2023-04-18T01:37:59.755Z,7.70
2023-04-18T01:43:02.074Z,7.78
2023-04-18T01:48:04.471Z,7.12
2023-04-18T01:53:06.632Z,7.65
2023-04-18T01:58:08.858Z,6.90
2023-04-18T02:03:11.179Z,7.33
2023-04-18T02:08:14.164Z,7.35
2023-04-18T02:13:16.430Z,8.40
2023-04-18T02:18:18.641Z,8.10
2023-04-18T02:23:20.811Z,8.38
2023-04-18T02:28:22.976Z,8.73
2023-04-18T02:33:25.517Z,9.25
2023-04-18T02:38:27.683Z,8.25
2023-04-18T02:43:30.038Z,7.90
2023-04-18T02:48:32.231Z,8.68
2023-04-18T02:53:35.479Z,9.33
2023-04-18T02:58:37.597Z,9.50
2023-04-18T03:03:39.753Z,10.00
2023-04-18T03:08:42.018Z,10.30
2023-04-18T03:13:44.206Z,10.38
2023-04-18T03:18:46.502Z,10.37
2023-04-18T03:23:48.706Z,9.95
2023-04-18T03:28:50.860Z,9.25
2023-04-18T03:33:53.025Z,9.77
2023-04-18T03:38:55.468Z,9.48
2023-04-18T03:43:57.590Z,9.53
2023-04-18T03:48:59.842Z,9.88
2023-04-18T03:54:01.956Z,9.55
2023-04-18T03:59:04.263Z,9.52
2023-04-18T04:04:06.734Z,11.25
2023-04-18T04:09:09.090Z,11.73
2023-04-18T04:14:11.339Z,10.00
2023-04-18T04:19:14.934Z,10.30
2023-04-18T04:24:17.246Z,10.85
2023-04-18T04:29:21.656Z,10.07
2023-04-18T04:34:23.833Z,12.50
2023-04-18T04:39:26.063Z,12.40
2023-04-18T04:44:28.385Z,11.85
2023-04-18T04:49:31.139Z,11.45
2023-04-18T04:54:33.276Z,12.88
2023-04-18T04:59:35.713Z,11.80
2023-04-18T05:04:38.090Z,12.93
2023-04-18T05:09:40.401Z,11.85
2023-04-18T05:14:42.618Z,14.27
2023-04-18T05:19:44.816Z,13.38
2023-04-18T05:24:47.096Z,12.63
2023-04-18T05:29:50.352Z,12.65
2023-04-18T05:34:52.455Z,11.10
2023-04-18T05:39:54.628Z,12.37
2023-04-18T05:44:56.809Z,11.12
2023-04-18T05:49:59.156Z,10.90
2023-04-18T05:55:01.356Z,11.25
2023-04-18T06:00:06.502Z,11.52
2023-04-18T06:05:09.426Z,10.27
2023-04-18T06:10:13.601Z,14.35
2023-04-18T06:15:16.111Z,12.17
2023-04-18T06:20:18.374Z,11.63
2023-04-18T06:25:20.825Z,10.85
2023-04-18T06:30:23.101Z,10.00
2023-04-18T06:35:26.628Z,10.25
2023-04-18T06:40:34.619Z,9.87
2023-04-18T06:45:36.997Z,10.75
2023-04-18T06:50:39.385Z,8.52
2023-04-18T06:55:41.610Z,10.23
2023-04-18T07:00:44.050Z,9.20
2023-04-18T07:05:46.640Z,8.63
2023-04-18T07:10:48.773Z,8.85
2023-04-18T07:15:51.019Z,8.50
2023-04-18T07:20:53.172Z,7.83
2023-04-18T07:25:55.546Z,7.85
2023-04-18T07:30:58.506Z,9.30
2023-04-18T07:36:06.186Z,8.38
2023-04-18T07:41:08.403Z,8.50
2023-04-18T07:46:10.941Z,7.53
2023-04-18T07:51:13.210Z,8.38
2023-04-18T07:56:15.440Z,12.20
2023-04-18T08:01:18.756Z,7.00
2023-04-18T08:06:21.482Z,8.65
2023-04-18T08:11:23.634Z,6.80
2023-04-18T08:16:26.284Z,6.90
2023-04-18T08:21:28.472Z,7.70
2023-04-18T08:26:30.848Z,7.22
2023-04-18T08:31:33.194Z,8.02
2023-04-18T08:36:35.639Z,7.77
2023-04-18T08:41:38.057Z,7.07
2023-04-18T08:46:40.317Z,8.20
2023-04-18T08:51:44.507Z,7.20
2023-04-18T08:56:46.790Z,6.45
2023-04-18T09:01:56.984Z,7.63
2023-04-18T09:06:59.399Z,7.37
2023-04-18T09:12:09.459Z,6.83
2023-04-18T09:17:14.397Z,6.40
2023-04-18T09:22:18.037Z,6.90
2023-04-18T09:27:23.020Z,7.53
2023-04-18T09:32:29.174Z,7.10
2023-04-18T09:37:31.705Z,6.83
2023-04-18T09:42:36.284Z,7.10
2023-04-18T09:47:38.832Z,7.37
2023-04-18T09:52:42.856Z,6.70
2023-04-18T09:57:47.911Z,7.07
2023-04-18T10:02:51.505Z,8.33
2023-04-18T10:07:54.921Z,7.35
2023-04-18T10:12:58.581Z,7.68
2023-04-18T10:18:06.024Z,8.13
2023-04-18T10:23:40.279Z,7.35
2023-04-18T10:28:59.154Z,6.70
2023-04-18T10:34:05.657Z,8.23
2023-04-18T10:39:25.616Z,7.62
2023-04-18T10:44:28.060Z,6.77
2023-04-18T10:49:33.928Z,5.85
2023-04-18T10:54:51.017Z,8.13
2023-04-18T10:59:56.517Z,8.85
2023-04-18T11:05:07.414Z,11.70
2023-04-18T11:10:12.818Z,8.97
2023-04-18T11:15:25.742Z,9.93
2023-04-18T11:20:29.278Z,6.80
2023-04-18T11:25:36.463Z,7.65
2023-04-18T11:30:42.190Z,7.93
2023-04-18T11:35:45.958Z,6.80
2023-04-18T11:40:48.763Z,7.35
2023-04-18T11:45:57.976Z,6.63
2023-04-18T11:51:01.174Z,8.20
2023-04-18T11:56:04.601Z,8.10
2023-04-18T12:01:17.633Z,6.20
2023-04-18T12:06:19.905Z,8.25
2023-04-18T12:11:22.182Z,7.67
2023-04-18T12:16:28.442Z,7.15
2023-04-18T12:21:33.097Z,8.18
2023-04-18T12:26:45.618Z,6.83
2023-04-18T12:31:48.191Z,6.62
2023-04-18T12:36:50.534Z,5.97
2023-04-18T12:41:52.692Z,8.77
2023-04-18T12:46:54.984Z,7.70
2023-04-18T12:51:57.181Z,7.93
2023-04-18T12:56:59.382Z,8.25
2023-04-18T13:02:01.682Z,6.67
2023-04-18T13:07:04.155Z,8.23
2023-04-18T13:12:06.764Z,8.75
2023-04-18T13:17:09.586Z,7.17
2023-04-18T13:22:11.871Z,7.28
2023-04-18T13:27:15.091Z,9.77
2023-04-18T13:32:17.860Z,9.55
2023-04-18T13:37:20.202Z,10.13
2023-04-18T13:42:22.445Z,10.13
2023-04-18T13:47:24.609Z,8.95
2023-04-18T13:52:26.794Z,8.97
2023-04-18T13:57:32.043Z,8.57
2023-04-18T14:02:34.491Z,10.02
2023-04-18T14:07:38.408Z,8.90
2023-04-18T14:12:40.653Z,8.65
2023-04-18T14:17:44.828Z,8.60
2023-04-18T14:22:52.354Z,8.07
2023-04-18T14:28:09.426Z,9.02
2023-04-18T14:33:11.767Z,9.80
2023-04-18T14:38:14.012Z,8.90
2023-04-18T14:43:16.475Z,8.67
2023-04-18T14:48:18.663Z,10.10
2023-04-18T14:53:21.258Z,10.00
2023-04-18T14:58:23.442Z,11.80
2023-04-18T15:03:25.911Z,10.85
2023-04-18T15:08:28.256Z,8.00
2023-04-18T15:13:30.766Z,7.87
2023-04-18T15:18:33.033Z,7.97
2023-04-18T15:23:35.370Z,10.80
2023-04-18T15:28:37.526Z,9.45
2023-04-18T15:33:39.735Z,10.10
2023-04-18T15:38:43.092Z,7.82
2023-04-18T15:43:47.095Z,9.00
2023-04-18T15:48:49.377Z,10.73
2023-04-18T15:53:51.648Z,8.43
2023-04-18T15:58:57.256Z,8.70
2023-04-18T16:03:59.457Z,7.55
2023-04-18T16:09:02.027Z,7.47
2023-04-18T16:14:04.210Z,10.60
2023-04-18T16:19:06.447Z,9.98
2023-04-18T16:24:08.697Z,7.90
2023-04-18T16:29:10.949Z,8.85
2023-04-18T16:34:14.613Z,10.65
2023-04-18T16:39:18.081Z,7.53
2023-04-18T16:44:20.513Z,8.27
2023-04-18T16:49:24.040Z,10.83
2023-04-18T16:54:26.276Z,9.68
2023-04-18T16:59:28.738Z,10.73
2023-04-18T17:04:31.830Z,8.37
2023-04-18T17:09:34.012Z,10.20
2023-04-18T17:14:37.272Z,11.63
2023-04-18T17:19:40.213Z,8.95
2023-04-18T17:24:42.369Z,8.35
2023-04-18T17:29:44.547Z,7.50
2023-04-18T17:34:46.893Z,8.05
2023-04-18T17:39:49.514Z,8.13
2023-04-18T17:44:51.712Z,9.27
2023-04-18T17:49:53.876Z,8.00
2023-04-18T17:54:56.888Z,8.73
2023-04-18T17:59:59.372Z,9.25
2023-04-18T18:05:01.734Z,12.90
2023-04-18T18:10:04.647Z,9.10
2023-04-18T18:15:10.013Z,10.25
2023-04-18T18:20:12.434Z,9.55
2023-04-18T18:25:15.207Z,10.77
2023-04-18T18:30:18.075Z,10.97
2023-04-18T18:35:20.790Z,11.77
2023-04-18T18:40:23.193Z,12.82
2023-04-18T18:45:25.388Z,9.57
2023-04-18T18:50:27.741Z,10.20
2023-04-18T18:55:30.419Z,10.10
2023-04-18T19:00:32.610Z,11.32
2023-04-18T19:05:34.802Z,11.00
2023-04-18T19:10:37.236Z,8.57
2023-04-18T19:15:39.497Z,11.05
2023-04-18T19:20:41.941Z,9.60
2023-04-18T19:25:45.026Z,10.55
2023-04-18T19:30:47.430Z,11.60
2023-04-18T19:35:49.680Z,15.73
2023-04-18T19:40:51.910Z,12.55
2023-04-18T19:45:55.400Z,13.67
2023-04-18T19:50:58.240Z,12.98
2023-04-18T19:56:00.456Z,10.85
2023-04-18T20:01:05.780Z,13.45
2023-04-18T20:06:08.404Z,12.40
2023-04-18T20:11:11.656Z,10.60
2023-04-18T20:16:13.952Z,16.25
2023-04-18T20:21:16.168Z,14.68
2023-04-18T20:26:18.374Z,10.48
2023-04-18T20:31:20.933Z,8.70
2023-04-18T20:36:25.637Z,8.97
2023-04-18T20:41:31.033Z,9.23
2023-04-18T20:46:33.408Z,9.07
2023-04-18T20:51:37.172Z,7.93
2023-04-18T20:56:39.278Z,9.02
2023-04-18T21:01:42.113Z,9.30
2023-04-18T21:06:44.413Z,7.82
2023-04-18T21:11:46.607Z,7.87
2023-04-18T21:16:48.762Z,9.68
2023-04-18T21:21:50.870Z,9.70
2023-04-18T21:26:54.124Z,9.93
2023-04-18T21:31:56.429Z,8.25
2023-04-18T21:36:59.464Z,9.70
2023-04-18T21:42:01.967Z,9.75
2023-04-18T21:47:04.142Z,8.45
2023-04-18T21:52:07.664Z,8.07
2023-04-18T21:57:09.929Z,9.52
2023-04-18T22:02:12.612Z,8.63
2023-04-18T22:07:15.747Z,8.73
2023-04-18T22:12:18.396Z,9.18
2023-04-18T22:17:22.064Z,11.47
2023-04-18T22:22:24.345Z,8.65
2023-04-18T22:27:26.487Z,9.85
2023-04-18T22:32:28.674Z,8.48
2023-04-18T22:37:30.860Z,9.23
2023-04-18T22:42:33.772Z,9.23
2023-04-18T22:47:36.112Z,7.93
2023-04-18T22:52:38.895Z,8.18
2023-04-18T22:57:41.016Z,8.80
2023-04-18T23:02:43.293Z,8.82
2023-04-18T23:07:45.708Z,9.90
2023-04-18T23:12:48.043Z,9.38
2023-04-18T23:17:53.930Z,9.38
2023-04-18T23:22:56.190Z,8.32
2023-04-18T23:27:58.318Z,9.18
2023-04-18T23:33:00.872Z,9.23
2023-04-18T23:38:03.093Z,8.13
2023-04-18T23:43:05.257Z,9.55
2023-04-18T23:48:07.515Z,10.93
2023-04-18T23:53:09.970Z,8.93
2023-04-18T23:58:12.533Z,9.47
